sensor_id;sensor_type;location;lat;lon;timestamp;P1;durP1;ratioP1;P2;durP2;ratioP2
23676;SDS011;31493;49.058;12.190;2023-01-10T00:02:10;3.58;;;1.65;;
23676;SDS011;31493;49.058;12.190;2023-01-10T00:04:37;2.28;;;1.70;;
23676;SDS011;31493;49.058;12.190;2023-01-10T00:07:05;2.67;;;1.40;;
23676;SDS011;31493;49.058;12.190;2023-01-10T00:09:32;5.10;;;1.85;;
23676;SDS011;31493;49.058;12.190;2023-01-10T00:12:00;2.97;;;1.67;;
23676;SDS011;31493;49.058;12.190;2023-01-10T00:14:45;2.75;;;1.50;;
23676;SDS011;31493;49.058;12.190;2023-01-10T00:17:12;3.10;;;1.63;;
23676;SDS011;31493;49.058;12.190;2023-01-10T00:19:39;2.65;;;1.58;;
23676;SDS011;31493;49.058;12.190;2023-01-10T00:22:06;1.60;;;1.48;;
23676;SDS011;31493;49.058;12.190;2023-01-10T00:24:41;2.72;;;1.42;;
23676;SDS011;31493;49.058;12.190;2023-01-10T00:27:10;3.35;;;1.63;;
23676;SDS011;31493;49.058;12.190;2023-01-10T00:29:40;3.42;;;1.50;;
23676;SDS011;31493;49.058;12.190;2023-01-10T00:32:07;1.60;;;1.30;;
23676;SDS011;31493;49.058;12.190;2023-01-10T00:34:34;2.30;;;1.10;;
23676;SDS011;31493;49.058;12.190;2023-01-10T00:37:01;3.58;;;1.27;;
23676;SDS011;31493;49.058;12.190;2023-01-10T00:39:28;2.25;;;1.20;;
23676;SDS011;31493;49.058;12.190;2023-01-10T00:41:56;2.03;;;1.17;;
23676;SDS011;31493;49.058;12.190;2023-01-10T00:44:42;1.40;;;1.20;;
23676;SDS011;31493;49.058;12.190;2023-01-10T00:47:11;1.75;;;1.20;;
23676;SDS011;31493;49.058;12.190;2023-01-10T00:49:38;2.13;;;1.45;;
23676;SDS011;31493;49.058;12.190;2023-01-10T00:52:06;1.48;;;1.30;;
23676;SDS011;31493;49.058;12.190;2023-01-10T00:54:33;3.22;;;1.50;;
23676;SDS011;31493;49.058;12.190;2023-01-10T00:57:00;2.72;;;1.20;;
23676;SDS011;31493;49.058;12.190;2023-01-10T00:59:27;1.85;;;1.10;;
23676;SDS011;31493;49.058;12.190;2023-01-10T01:01:56;1.90;;;1.20;;
23676;SDS011;31493;49.058;12.190;2023-01-10T01:04:22;1.38;;;1.20;;
23676;SDS011;31493;49.058;12.190;2023-01-10T01:06:49;2.88;;;1.02;;
23676;SDS011;31493;49.058;12.190;2023-01-10T01:09:16;5.57;;;1.33;;
23676;SDS011;31493;49.058;12.190;2023-01-10T01:11:44;3.10;;;1.25;;
23676;SDS011;31493;49.058;12.190;2023-01-10T01:14:11;4.07;;;1.48;;
23676;SDS011;31493;49.058;12.190;2023-01-10T01:16:38;2.30;;;1.30;;
23676;SDS011;31493;49.058;12.190;2023-01-10T01:19:06;5.15;;;1.70;;
23676;SDS011;31493;49.058;12.190;2023-01-10T01:21:33;2.88;;;1.25;;
23676;SDS011;31493;49.058;12.190;2023-01-10T01:24:00;2.80;;;1.23;;
23676;SDS011;31493;49.058;12.190;2023-01-10T01:26:27;4.65;;;1.33;;
23676;SDS011;31493;49.058;12.190;2023-01-10T01:28:54;5.95;;;1.52;;
23676;SDS011;31493;49.058;12.190;2023-01-10T01:31:21;2.53;;;1.30;;
23676;SDS011;31493;49.058;12.190;2023-01-10T01:33:48;2.00;;;1.42;;
23676;SDS011;31493;49.058;12.190;2023-01-10T01:36:17;1.80;;;1.30;;
23676;SDS011;31493;49.058;12.190;2023-01-10T01:38:44;4.78;;;1.35;;
23676;SDS011;31493;49.058;12.190;2023-01-10T01:41:11;5.03;;;1.60;;
23676;SDS011;31493;49.058;12.190;2023-01-10T01:43:57;2.55;;;1.38;;
23676;SDS011;31493;49.058;12.190;2023-01-10T01:46:26;3.42;;;1.13;;
23676;SDS011;31493;49.058;12.190;2023-01-10T01:48:54;5.22;;;1.50;;
23676;SDS011;31493;49.058;12.190;2023-01-10T01:51:22;4.25;;;1.58;;
23676;SDS011;31493;49.058;12.190;2023-01-10T01:53:55;3.45;;;1.38;;
23676;SDS011;31493;49.058;12.190;2023-01-10T01:56:27;4.90;;;1.60;;
23676;SDS011;31493;49.058;12.190;2023-01-10T01:59:00;4.57;;;1.60;;
23676;SDS011;31493;49.058;12.190;2023-01-10T02:01:31;3.63;;;1.80;;
23676;SDS011;31493;49.058;12.190;2023-01-10T02:04:02;3.15;;;1.40;;
23676;SDS011;31493;49.058;12.190;2023-01-10T02:06:37;2.78;;;1.45;;
23676;SDS011;31493;49.058;12.190;2023-01-10T02:11:36;5.97;;;1.70;;
23676;SDS011;31493;49.058;12.190;2023-01-10T02:14:03;2.53;;;1.40;;
23676;SDS011;31493;49.058;12.190;2023-01-10T02:16:32;4.47;;;1.60;;
23676;SDS011;31493;49.058;12.190;2023-01-10T02:18:59;3.13;;;1.90;;
23676;SDS011;31493;49.058;12.190;2023-01-10T02:21:35;7.40;;;2.03;;
23676;SDS011;31493;49.058;12.190;2023-01-10T02:27:40;5.68;;;1.80;;
23676;SDS011;31493;49.058;12.190;2023-01-10T02:33:33;3.92;;;2.05;;
23676;SDS011;31493;49.058;12.190;2023-01-10T02:36:10;4.03;;;2.22;;
23676;SDS011;31493;49.058;12.190;2023-01-10T02:38:55;4.95;;;1.98;;
23676;SDS011;31493;49.058;12.190;2023-01-10T02:41:28;4.70;;;2.10;;
23676;SDS011;31493;49.058;12.190;2023-01-10T02:44:02;4.93;;;2.25;;
23676;SDS011;31493;49.058;12.190;2023-01-10T02:46:33;2.85;;;1.95;;
23676;SDS011;31493;49.058;12.190;2023-01-10T02:49:04;4.38;;;2.30;;
23676;SDS011;31493;49.058;12.190;2023-01-10T02:51:31;9.88;;;2.35;;
23676;SDS011;31493;49.058;12.190;2023-01-10T02:53:59;3.70;;;2.38;;
23676;SDS011;31493;49.058;12.190;2023-01-10T02:56:45;4.88;;;2.75;;
23676;SDS011;31493;49.058;12.190;2023-01-10T03:02:48;6.57;;;3.10;;
23676;SDS011;31493;49.058;12.190;2023-01-10T03:05:31;3.83;;;3.05;;
23676;SDS011;31493;49.058;12.190;2023-01-10T03:08:09;6.85;;;3.30;;
23676;SDS011;31493;49.058;12.190;2023-01-10T03:10:46;6.10;;;3.53;;
23676;SDS011;31493;49.058;12.190;2023-01-10T03:13:19;4.93;;;2.97;;
23676;SDS011;31493;49.058;12.190;2023-01-10T03:15:52;5.32;;;3.30;;
23676;SDS011;31493;49.058;12.190;2023-01-10T03:18:22;6.10;;;3.38;;
23676;SDS011;31493;49.058;12.190;2023-01-10T03:20:59;6.75;;;3.17;;
23676;SDS011;31493;49.058;12.190;2023-01-10T03:23:30;8.35;;;2.90;;
23676;SDS011;31493;49.058;12.190;2023-01-10T03:25:59;4.88;;;3.03;;
23676;SDS011;31493;49.058;12.190;2023-01-10T03:28:29;3.05;;;2.53;;
23676;SDS011;31493;49.058;12.190;2023-01-10T03:31:04;5.80;;;2.80;;
23676;SDS011;31493;49.058;12.190;2023-01-10T03:33:34;7.72;;;2.92;;
23676;SDS011;31493;49.058;12.190;2023-01-10T03:36:08;4.07;;;2.90;;
23676;SDS011;31493;49.058;12.190;2023-01-10T03:38:46;5.53;;;2.33;;
23676;SDS011;31493;49.058;12.190;2023-01-10T03:41:20;2.50;;;2.30;;
23676;SDS011;31493;49.058;12.190;2023-01-10T03:44:00;3.13;;;2.50;;
23676;SDS011;31493;49.058;12.190;2023-01-10T03:46:53;3.38;;;2.25;;
23676;SDS011;31493;49.058;12.190;2023-01-10T03:49:23;3.03;;;2.28;;
23676;SDS011;31493;49.058;12.190;2023-01-10T03:51:54;2.47;;;2.28;;
23676;SDS011;31493;49.058;12.190;2023-01-10T03:54:24;3.70;;;2.13;;
23676;SDS011;31493;49.058;12.190;2023-01-10T03:56:51;3.55;;;2.38;;
23676;SDS011;31493;49.058;12.190;2023-01-10T03:59:18;4.35;;;2.20;;
23676;SDS011;31493;49.058;12.190;2023-01-10T04:01:48;4.22;;;2.30;;
23676;SDS011;31493;49.058;12.190;2023-01-10T04:04:16;4.45;;;2.50;;
23676;SDS011;31493;49.058;12.190;2023-01-10T04:06:43;2.67;;;2.30;;
23676;SDS011;31493;49.058;12.190;2023-01-10T04:09:11;4.68;;;2.40;;
23676;SDS011;31493;49.058;12.190;2023-01-10T04:11:39;2.85;;;2.33;;
23676;SDS011;31493;49.058;12.190;2023-01-10T04:14:06;3.38;;;2.70;;
23676;SDS011;31493;49.058;12.190;2023-01-10T04:16:33;3.08;;;2.50;;
23676;SDS011;31493;49.058;12.190;2023-01-10T04:19:00;3.10;;;2.42;;
23676;SDS011;31493;49.058;12.190;2023-01-10T04:21:27;3.45;;;2.15;;
23676;SDS011;31493;49.058;12.190;2023-01-10T04:23:54;3.50;;;2.45;;
23676;SDS011;31493;49.058;12.190;2023-01-10T04:26:23;3.88;;;2.58;;
23676;SDS011;31493;49.058;12.190;2023-01-10T04:28:50;3.88;;;2.83;;
23676;SDS011;31493;49.058;12.190;2023-01-10T04:31:17;4.03;;;2.67;;
23676;SDS011;31493;49.058;12.190;2023-01-10T04:33:44;3.45;;;2.78;;
23676;SDS011;31493;49.058;12.190;2023-01-10T04:36:11;5.03;;;2.90;;
23676;SDS011;31493;49.058;12.190;2023-01-10T04:38:38;4.68;;;2.50;;
23676;SDS011;31493;49.058;12.190;2023-01-10T04:41:05;4.18;;;3.03;;
23676;SDS011;31493;49.058;12.190;2023-01-10T04:43:33;4.13;;;2.92;;
23676;SDS011;31493;49.058;12.190;2023-01-10T04:46:00;3.63;;;3.22;;
23676;SDS011;31493;49.058;12.190;2023-01-10T04:48:28;4.88;;;3.40;;
23676;SDS011;31493;49.058;12.190;2023-01-10T04:50:55;4.00;;;2.88;;
23676;SDS011;31493;49.058;12.190;2023-01-10T04:53:22;4.72;;;3.50;;
23676;SDS011;31493;49.058;12.190;2023-01-10T04:55:49;3.97;;;3.05;;
23676;SDS011;31493;49.058;12.190;2023-01-10T04:58:16;4.93;;;3.50;;
23676;SDS011;31493;49.058;12.190;2023-01-10T05:00:45;4.15;;;3.30;;
23676;SDS011;31493;49.058;12.190;2023-01-10T05:03:12;6.70;;;3.38;;
23676;SDS011;31493;49.058;12.190;2023-01-10T05:05:40;4.55;;;3.10;;
23676;SDS011;31493;49.058;12.190;2023-01-10T05:08:07;5.00;;;3.55;;
23676;SDS011;31493;49.058;12.190;2023-01-10T05:10:34;5.18;;;3.30;;
23676;SDS011;31493;49.058;12.190;2023-01-10T05:13:01;7.20;;;2.90;;
23676;SDS011;31493;49.058;12.190;2023-01-10T05:15:28;4.57;;;3.22;;
23676;SDS011;31493;49.058;12.190;2023-01-10T05:17:59;4.18;;;2.92;;
23676;SDS011;31493;49.058;12.190;2023-01-10T05:20:26;3.90;;;3.20;;
23676;SDS011;31493;49.058;12.190;2023-01-10T05:22:53;5.70;;;3.22;;
23676;SDS011;31493;49.058;12.190;2023-01-10T05:25:20;4.03;;;2.60;;
23676;SDS011;31493;49.058;12.190;2023-01-10T05:27:47;4.22;;;2.50;;
23676;SDS011;31493;49.058;12.190;2023-01-10T05:30:15;4.45;;;2.97;;
23676;SDS011;31493;49.058;12.190;2023-01-10T05:32:42;3.25;;;2.40;;
23676;SDS011;31493;49.058;12.190;2023-01-10T05:35:10;3.97;;;2.63;;
23676;SDS011;31493;49.058;12.190;2023-01-10T05:37:37;2.95;;;2.33;;
23676;SDS011;31493;49.058;12.190;2023-01-10T05:40:06;4.88;;;2.60;;
23676;SDS011;31493;49.058;12.190;2023-01-10T05:42:33;5.00;;;2.50;;
23676;SDS011;31493;49.058;12.190;2023-01-10T05:45:00;4.70;;;3.00;;
23676;SDS011;31493;49.058;12.190;2023-01-10T05:47:28;4.28;;;2.67;;
23676;SDS011;31493;49.058;12.190;2023-01-10T05:49:55;4.18;;;3.05;;
23676;SDS011;31493;49.058;12.190;2023-01-10T05:52:23;4.28;;;2.95;;
23676;SDS011;31493;49.058;12.190;2023-01-10T05:54:50;3.92;;;3.10;;
23676;SDS011;31493;49.058;12.190;2023-01-10T05:57:17;5.80;;;3.42;;
23676;SDS011;31493;49.058;12.190;2023-01-10T06:02:13;7.15;;;3.75;;
23676;SDS011;31493;49.058;12.190;2023-01-10T06:04:40;6.68;;;3.92;;
23676;SDS011;31493;49.058;12.190;2023-01-10T06:07:07;4.50;;;3.70;;
23676;SDS011;31493;49.058;12.190;2023-01-10T06:09:35;5.93;;;4.32;;
23676;SDS011;31493;49.058;12.190;2023-01-10T06:12:02;4.57;;;3.80;;
23676;SDS011;31493;49.058;12.190;2023-01-10T06:14:29;5.20;;;4.20;;
23676;SDS011;31493;49.058;12.190;2023-01-10T06:16:56;7.68;;;4.80;;
23676;SDS011;31493;49.058;12.190;2023-01-10T06:19:23;5.93;;;4.63;;
23676;SDS011;31493;49.058;12.190;2023-01-10T06:21:50;6.57;;;5.00;;
23676;SDS011;31493;49.058;12.190;2023-01-10T06:24:17;5.95;;;4.38;;
23676;SDS011;31493;49.058;12.190;2023-01-10T06:26:46;8.73;;;4.97;;
23676;SDS011;31493;49.058;12.190;2023-01-10T06:29:13;6.03;;;4.57;;
23676;SDS011;31493;49.058;12.190;2023-01-10T06:31:40;9.52;;;4.80;;
23676;SDS011;31493;49.058;12.190;2023-01-10T06:34:07;6.85;;;4.45;;
23676;SDS011;31493;49.058;12.190;2023-01-10T06:36:34;7.13;;;4.45;;
23676;SDS011;31493;49.058;12.190;2023-01-10T06:39:02;5.90;;;4.47;;
23676;SDS011;31493;49.058;12.190;2023-01-10T06:41:29;6.65;;;4.35;;
23676;SDS011;31493;49.058;12.190;2023-01-10T06:43:58;6.43;;;4.25;;
23676;SDS011;31493;49.058;12.190;2023-01-10T06:46:25;5.25;;;3.63;;
23676;SDS011;31493;49.058;12.190;2023-01-10T06:48:52;5.28;;;4.03;;
23676;SDS011;31493;49.058;12.190;2023-01-10T06:51:19;6.68;;;4.82;;
23676;SDS011;31493;49.058;12.190;2023-01-10T06:53:46;7.47;;;4.22;;
23676;SDS011;31493;49.058;12.190;2023-01-10T06:56:13;5.57;;;4.38;;
23676;SDS011;31493;49.058;12.190;2023-01-10T06:58:40;6.22;;;4.43;;
23676;SDS011;31493;49.058;12.190;2023-01-10T07:01:13;6.68;;;4.90;;
23676;SDS011;31493;49.058;12.190;2023-01-10T07:03:42;6.18;;;4.60;;
23676;SDS011;31493;49.058;12.190;2023-01-10T07:06:09;6.85;;;4.75;;
23676;SDS011;31493;49.058;12.190;2023-01-10T07:08:36;5.97;;;4.88;;
23676;SDS011;31493;49.058;12.190;2023-01-10T07:11:04;7.47;;;5.47;;
23676;SDS011;31493;49.058;12.190;2023-01-10T07:13:31;7.78;;;4.90;;
23676;SDS011;31493;49.058;12.190;2023-01-10T07:16:02;7.40;;;5.45;;
23676;SDS011;31493;49.058;12.190;2023-01-10T07:18:31;6.30;;;5.20;;
23676;SDS011;31493;49.058;12.190;2023-01-10T07:20:59;8.77;;;5.55;;
23676;SDS011;31493;49.058;12.190;2023-01-10T07:23:26;7.60;;;5.80;;
23676;SDS011;31493;49.058;12.190;2023-01-10T07:25:55;7.82;;;5.80;;
23676;SDS011;31493;49.058;12.190;2023-01-10T07:28:22;7.78;;;5.80;;
23676;SDS011;31493;49.058;12.190;2023-01-10T07:30:49;9.27;;;6.10;;
23676;SDS011;31493;49.058;12.190;2023-01-10T07:33:16;8.55;;;5.78;;
23676;SDS011;31493;49.058;12.190;2023-01-10T07:35:45;11.15;;;5.90;;
23676;SDS011;31493;49.058;12.190;2023-01-10T07:38:11;9.50;;;6.00;;
23676;SDS011;31493;49.058;12.190;2023-01-10T07:40:38;9.00;;;5.55;;
23676;SDS011;31493;49.058;12.190;2023-01-10T07:43:06;6.97;;;5.90;;
23676;SDS011;31493;49.058;12.190;2023-01-10T07:45:33;9.02;;;5.55;;
23676;SDS011;31493;49.058;12.190;2023-01-10T07:48:00;6.68;;;5.30;;
23676;SDS011;31493;49.058;12.190;2023-01-10T07:50:29;7.20;;;5.57;;
23676;SDS011;31493;49.058;12.190;2023-01-10T07:53:00;9.40;;;5.18;;
23676;SDS011;31493;49.058;12.190;2023-01-10T07:55:28;8.40;;;5.20;;
23676;SDS011;31493;49.058;12.190;2023-01-10T07:57:56;6.93;;;5.13;;
23676;SDS011;31493;49.058;12.190;2023-01-10T08:00:23;6.38;;;4.53;;
23676;SDS011;31493;49.058;12.190;2023-01-10T08:02:51;6.57;;;4.80;;
23676;SDS011;31493;49.058;12.190;2023-01-10T08:07:46;10.93;;;4.97;;
23676;SDS011;31493;49.058;12.190;2023-01-10T08:10:14;7.50;;;5.43;;
23676;SDS011;31493;49.058;12.190;2023-01-10T08:15:09;9.68;;;5.63;;
23676;SDS011;31493;49.058;12.190;2023-01-10T08:17:36;11.73;;;6.13;;
23676;SDS011;31493;49.058;12.190;2023-01-10T08:20:03;11.15;;;7.60;;
23676;SDS011;31493;49.058;12.190;2023-01-10T08:22:31;10.07;;;6.43;;
23676;SDS011;31493;49.058;12.190;2023-01-10T08:24:58;11.80;;;6.63;;
23676;SDS011;31493;49.058;12.190;2023-01-10T08:27:26;10.55;;;6.60;;
23676;SDS011;31493;49.058;12.190;2023-01-10T08:29:53;12.38;;;7.03;;
23676;SDS011;31493;49.058;12.190;2023-01-10T08:32:20;11.43;;;6.55;;
23676;SDS011;31493;49.058;12.190;2023-01-10T08:34:47;10.90;;;7.10;;
23676;SDS011;31493;49.058;12.190;2023-01-10T08:37:14;13.80;;;7.28;;
23676;SDS011;31493;49.058;12.190;2023-01-10T08:39:41;7.75;;;5.93;;
23676;SDS011;31493;49.058;12.190;2023-01-10T08:42:08;11.82;;;6.78;;
23676;SDS011;31493;49.058;12.190;2023-01-10T08:44:36;13.98;;;6.68;;
23676;SDS011;31493;49.058;12.190;2023-01-10T08:47:03;10.32;;;6.57;;
23676;SDS011;31493;49.058;12.190;2023-01-10T08:49:30;12.20;;;6.18;;
23676;SDS011;31493;49.058;12.190;2023-01-10T08:51:57;11.38;;;6.95;;
23676;SDS011;31493;49.058;12.190;2023-01-10T08:54:24;11.88;;;7.30;;
23676;SDS011;31493;49.058;12.190;2023-01-10T08:56:51;8.70;;;6.38;;
23676;SDS011;31493;49.058;12.190;2023-01-10T08:59:18;12.50;;;6.75;;
23676;SDS011;31493;49.058;12.190;2023-01-10T09:01:47;13.45;;;6.50;;
23676;SDS011;31493;49.058;12.190;2023-01-10T09:04:14;12.00;;;6.85;;
23676;SDS011;31493;49.058;12.190;2023-01-10T09:06:41;9.90;;;5.65;;
23676;SDS011;31493;49.058;12.190;2023-01-10T09:09:08;9.88;;;7.13;;
23676;SDS011;31493;49.058;12.190;2023-01-10T09:11:35;11.20;;;7.10;;
23676;SDS011;31493;49.058;12.190;2023-01-10T09:14:03;9.27;;;5.93;;
23676;SDS011;31493;49.058;12.190;2023-01-10T09:16:31;11.00;;;5.45;;
23676;SDS011;31493;49.058;12.190;2023-01-10T09:19:00;7.72;;;4.55;;
23676;SDS011;31493;49.058;12.190;2023-01-10T09:21:27;7.65;;;4.15;;
23676;SDS011;31493;49.058;12.190;2023-01-10T09:23:54;6.28;;;3.95;;
23676;SDS011;31493;49.058;12.190;2023-01-10T09:26:21;5.20;;;3.53;;
23676;SDS011;31493;49.058;12.190;2023-01-10T09:28:49;7.53;;;3.60;;
23676;SDS011;31493;49.058;12.190;2023-01-10T09:31:16;8.13;;;3.97;;
23676;SDS011;31493;49.058;12.190;2023-01-10T09:33:43;7.70;;;3.70;;
23676;SDS011;31493;49.058;12.190;2023-01-10T09:36:12;7.93;;;3.90;;
23676;SDS011;31493;49.058;12.190;2023-01-10T09:38:40;9.73;;;4.25;;
23676;SDS011;31493;49.058;12.190;2023-01-10T09:41:17;8.30;;;4.90;;
23676;SDS011;31493;49.058;12.190;2023-01-10T09:44:00;9.38;;;5.30;;
23676;SDS011;31493;49.058;12.190;2023-01-10T09:46:35;11.30;;;5.93;;
23676;SDS011;31493;49.058;12.190;2023-01-10T09:49:11;11.45;;;4.95;;
23676;SDS011;31493;49.058;12.190;2023-01-10T09:51:46;13.38;;;4.90;;
23676;SDS011;31493;49.058;12.190;2023-01-10T09:54:17;7.45;;;4.68;;
23676;SDS011;31493;49.058;12.190;2023-01-10T09:56:54;9.98;;;5.47;;
23676;SDS011;31493;49.058;12.190;2023-01-10T09:59:22;7.60;;;5.00;;
23676;SDS011;31493;49.058;12.190;2023-01-10T10:01:52;6.85;;;4.25;;
23676;SDS011;31493;49.058;12.190;2023-01-10T10:04:26;8.13;;;4.53;;
23676;SDS011;31493;49.058;12.190;2023-01-10T10:06:59;8.45;;;4.32;;
23676;SDS011;31493;49.058;12.190;2023-01-10T10:09:27;7.63;;;4.60;;
23676;SDS011;31493;49.058;12.190;2023-01-10T10:12:02;12.65;;;4.60;;
23676;SDS011;31493;49.058;12.190;2023-01-10T10:14:44;10.27;;;4.63;;
23676;SDS011;31493;49.058;12.190;2023-01-10T10:17:24;7.00;;;3.70;;
23676;SDS011;31493;49.058;12.190;2023-01-10T10:20:13;9.65;;;4.80;;
23676;SDS011;31493;49.058;12.190;2023-01-10T10:22:51;10.75;;;4.68;;
23676;SDS011;31493;49.058;12.190;2023-01-10T10:25:33;9.60;;;4.43;;
23676;SDS011;31493;49.058;12.190;2023-01-10T10:28:20;7.22;;;3.67;;
23676;SDS011;31493;49.058;12.190;2023-01-10T10:31:07;8.25;;;3.60;;
23676;SDS011;31493;49.058;12.190;2023-01-10T10:33:43;6.97;;;3.60;;
23676;SDS011;31493;49.058;12.190;2023-01-10T10:36:19;8.70;;;3.65;;
23676;SDS011;31493;49.058;12.190;2023-01-10T10:38:50;7.93;;;3.72;;
23676;SDS011;31493;49.058;12.190;2023-01-10T10:41:26;7.97;;;3.40;;
23676;SDS011;31493;49.058;12.190;2023-01-10T10:43:57;9.25;;;3.40;;
23676;SDS011;31493;49.058;12.190;2023-01-10T10:46:29;10.80;;;3.53;;
23676;SDS011;31493;49.058;12.190;2023-01-10T10:48:57;8.68;;;3.30;;
23676;SDS011;31493;49.058;12.190;2023-01-10T10:51:28;7.70;;;3.17;;
23676;SDS011;31493;49.058;12.190;2023-01-10T10:54:04;8.35;;;3.70;;
23676;SDS011;31493;49.058;12.190;2023-01-10T10:56:32;9.10;;;3.55;;
23676;SDS011;31493;49.058;12.190;2023-01-10T10:58:59;9.93;;;4.20;;
23676;SDS011;31493;49.058;12.190;2023-01-10T11:01:26;12.40;;;4.40;;
23676;SDS011;31493;49.058;12.190;2023-01-10T11:03:53;10.10;;;3.42;;
23676;SDS011;31493;49.058;12.190;2023-01-10T11:06:24;8.75;;;3.78;;
23676;SDS011;31493;49.058;12.190;2023-01-10T11:08:55;10.65;;;4.15;;
23676;SDS011;31493;49.058;12.190;2023-01-10T11:11:27;13.82;;;3.80;;
23676;SDS011;31493;49.058;12.190;2023-01-10T11:13:59;10.60;;;3.60;;
23676;SDS011;31493;49.058;12.190;2023-01-10T11:16:28;9.63;;;3.90;;
23676;SDS011;31493;49.058;12.190;2023-01-10T11:21:52;14.77;;;4.03;;
23676;SDS011;31493;49.058;12.190;2023-01-10T11:24:25;10.00;;;4.03;;
23676;SDS011;31493;49.058;12.190;2023-01-10T11:26:56;7.90;;;3.45;;
23676;SDS011;31493;49.058;12.190;2023-01-10T11:29:25;10.15;;;3.55;;
23676;SDS011;31493;49.058;12.190;2023-01-10T11:31:57;9.75;;;3.65;;
23676;SDS011;31493;49.058;12.190;2023-01-10T11:34:27;11.15;;;3.90;;
23676;SDS011;31493;49.058;12.190;2023-01-10T11:36:57;11.63;;;4.03;;
23676;SDS011;31493;49.058;12.190;2023-01-10T11:39:28;10.27;;;4.03;;
23676;SDS011;31493;49.058;12.190;2023-01-10T11:41:57;11.30;;;3.50;;
23676;SDS011;31493;49.058;12.190;2023-01-10T11:44:50;8.55;;;3.58;;
23676;SDS011;31493;49.058;12.190;2023-01-10T11:47:17;7.82;;;3.70;;
23676;SDS011;31493;49.058;12.190;2023-01-10T11:49:46;12.65;;;4.20;;
23676;SDS011;31493;49.058;12.190;2023-01-10T11:52:17;9.00;;;3.60;;
23676;SDS011;31493;49.058;12.190;2023-01-10T11:54:48;12.18;;;4.00;;
23676;SDS011;31493;49.058;12.190;2023-01-10T11:57:17;8.70;;;3.38;;
23676;SDS011;31493;49.058;12.190;2023-01-10T11:59:51;12.82;;;4.03;;
23676;SDS011;31493;49.058;12.190;2023-01-10T12:02:21;12.48;;;3.70;;
23676;SDS011;31493;49.058;12.190;2023-01-10T12:04:50;11.98;;;4.10;;
23676;SDS011;31493;49.058;12.190;2023-01-10T12:07:20;11.70;;;3.42;;
23676;SDS011;31493;49.058;12.190;2023-01-10T12:09:53;12.68;;;3.70;;
23676;SDS011;31493;49.058;12.190;2023-01-10T12:12:23;9.65;;;3.92;;
23676;SDS011;31493;49.058;12.190;2023-01-10T12:14:52;10.23;;;3.42;;
23676;SDS011;31493;49.058;12.190;2023-01-10T12:17:22;10.95;;;3.35;;
23676;SDS011;31493;49.058;12.190;2023-01-10T12:19:50;12.27;;;3.50;;
23676;SDS011;31493;49.058;12.190;2023-01-10T12:22:20;9.50;;;3.50;;
23676;SDS011;31493;49.058;12.190;2023-01-10T12:24:52;10.15;;;2.97;;
23676;SDS011;31493;49.058;12.190;2023-01-10T12:27:20;11.52;;;2.97;;
23676;SDS011;31493;49.058;12.190;2023-01-10T12:29:56;16.67;;;3.13;;
23676;SDS011;31493;49.058;12.190;2023-01-10T12:32:29;11.43;;;3.15;;
23676;SDS011;31493;49.058;12.190;2023-01-10T12:35:02;8.88;;;2.65;;
23676;SDS011;31493;49.058;12.190;2023-01-10T12:37:34;14.70;;;2.85;;
23676;SDS011;31493;49.058;12.190;2023-01-10T12:40:10;10.82;;;2.92;;
23676;SDS011;31493;49.058;12.190;2023-01-10T12:42:46;12.43;;;2.85;;
23676;SDS011;31493;49.058;12.190;2023-01-10T12:45:38;10.55;;;3.17;;
23676;SDS011;31493;49.058;12.190;2023-01-10T12:48:11;8.55;;;2.72;;
23676;SDS011;31493;49.058;12.190;2023-01-10T12:50:43;9.60;;;3.13;;
23676;SDS011;31493;49.058;12.190;2023-01-10T12:53:22;9.30;;;2.60;;
23676;SDS011;31493;49.058;12.190;2023-01-10T12:55:56;12.40;;;3.13;;
23676;SDS011;31493;49.058;12.190;2023-01-10T12:58:29;10.23;;;3.05;;
23676;SDS011;31493;49.058;12.190;2023-01-10T13:01:04;11.18;;;2.88;;
23676;SDS011;31493;49.058;12.190;2023-01-10T13:06:00;8.68;;;2.67;;
23676;SDS011;31493;49.058;12.190;2023-01-10T13:08:28;12.20;;;2.88;;
23676;SDS011;31493;49.058;12.190;2023-01-10T13:10:58;8.18;;;2.22;;
23676;SDS011;31493;49.058;12.190;2023-01-10T13:13:30;8.93;;;2.45;;
23676;SDS011;31493;49.058;12.190;2023-01-10T13:16:03;9.88;;;2.33;;
23676;SDS011;31493;49.058;12.190;2023-01-10T13:19:03;9.60;;;2.20;;
23676;SDS011;31493;49.058;12.190;2023-01-10T13:21:46;7.60;;;2.20;;
23676;SDS011;31493;49.058;12.190;2023-01-10T13:24:18;12.25;;;2.50;;
23676;SDS011;31493;49.058;12.190;2023-01-10T13:26:50;12.23;;;2.53;;
23676;SDS011;31493;49.058;12.190;2023-01-10T13:29:21;13.45;;;2.50;;
23676;SDS011;31493;49.058;12.190;2023-01-10T13:31:50;8.75;;;2.47;;
23676;SDS011;31493;49.058;12.190;2023-01-10T13:34:22;10.85;;;2.60;;
23676;SDS011;31493;49.058;12.190;2023-01-10T13:36:53;9.40;;;2.47;;
23676;SDS011;31493;49.058;12.190;2023-01-10T13:39:23;11.80;;;2.60;;
23676;SDS011;31493;49.058;12.190;2023-01-10T13:42:20;13.93;;;2.60;;
23676;SDS011;31493;49.058;12.190;2023-01-10T13:45:15;8.10;;;2.17;;
23676;SDS011;31493;49.058;12.190;2023-01-10T13:48:00;9.55;;;2.45;;
23676;SDS011;31493;49.058;12.190;2023-01-10T13:50:50;6.63;;;1.90;;
23676;SDS011;31493;49.058;12.190;2023-01-10T13:59:13;8.00;;;2.38;;
23676;SDS011;31493;49.058;12.190;2023-01-10T14:02:27;11.45;;;1.90;;
23676;SDS011;31493;49.058;12.190;2023-01-10T14:04:56;12.48;;;2.30;;
23676;SDS011;31493;49.058;12.190;2023-01-10T14:07:26;10.25;;;2.20;;
23676;SDS011;31493;49.058;12.190;2023-01-10T14:12:25;12.80;;;2.10;;
23676;SDS011;31493;49.058;12.190;2023-01-10T14:14:59;10.38;;;2.10;;
23676;SDS011;31493;49.058;12.190;2023-01-10T14:17:32;10.70;;;2.28;;
23676;SDS011;31493;49.058;12.190;2023-01-10T14:20:05;14.10;;;2.13;;
23676;SDS011;31493;49.058;12.190;2023-01-10T14:22:46;4.75;;;1.70;;
23676;SDS011;31493;49.058;12.190;2023-01-10T14:25:24;8.13;;;2.33;;
23676;SDS011;31493;49.058;12.190;2023-01-10T14:30:21;10.55;;;2.30;;
23676;SDS011;31493;49.058;12.190;2023-01-10T14:32:54;8.60;;;1.90;;
23676;SDS011;31493;49.058;12.190;2023-01-10T14:35:27;12.25;;;1.83;;
23676;SDS011;31493;49.058;12.190;2023-01-10T14:38:00;9.30;;;1.60;;
23676;SDS011;31493;49.058;12.190;2023-01-10T14:40:28;13.63;;;2.22;;
23676;SDS011;31493;49.058;12.190;2023-01-10T14:43:05;7.60;;;1.67;;
23676;SDS011;31493;49.058;12.190;2023-01-10T14:45:37;9.15;;;2.05;;
23676;SDS011;31493;49.058;12.190;2023-01-10T14:48:23;7.55;;;1.60;;
23676;SDS011;31493;49.058;12.190;2023-01-10T14:51:05;10.02;;;1.92;;
23676;SDS011;31493;49.058;12.190;2023-01-10T14:53:42;8.07;;;2.15;;
23676;SDS011;31493;49.058;12.190;2023-01-10T14:56:16;7.45;;;2.35;;
23676;SDS011;31493;49.058;12.190;2023-01-10T14:58:44;10.45;;;2.35;;
23676;SDS011;31493;49.058;12.190;2023-01-10T15:01:11;8.10;;;1.88;;
23676;SDS011;31493;49.058;12.190;2023-01-10T15:03:45;10.20;;;2.42;;
23676;SDS011;31493;49.058;12.190;2023-01-10T15:06:12;8.73;;;2.13;;
23676;SDS011;31493;49.058;12.190;2023-01-10T15:08:39;12.90;;;2.15;;
23676;SDS011;31493;49.058;12.190;2023-01-10T15:11:08;8.55;;;1.95;;
23676;SDS011;31493;49.058;12.190;2023-01-10T15:13:40;9.95;;;2.13;;
23676;SDS011;31493;49.058;12.190;2023-01-10T15:16:15;10.13;;;1.98;;
23676;SDS011;31493;49.058;12.190;2023-01-10T15:18:45;11.88;;;2.15;;
23676;SDS011;31493;49.058;12.190;2023-01-10T15:21:14;7.00;;;2.00;;
23676;SDS011;31493;49.058;12.190;2023-01-10T15:23:44;8.05;;;2.33;;
23676;SDS011;31493;49.058;12.190;2023-01-10T15:26:12;7.00;;;2.00;;
23676;SDS011;31493;49.058;12.190;2023-01-10T15:28:42;9.98;;;2.08;;